createdAt,value
2018-11-27T00:00:40.523Z,23.90
2018-11-27T00:03:11.456Z,25.80
2018-11-27T00:05:40.585Z,26.03
2018-11-27T00:08:10.509Z,24.50
2018-11-27T00:10:39.845Z,26.13
2018-11-27T00:13:09.418Z,24.17
2018-11-27T00:15:38.459Z,24.07
2018-11-27T00:18:07.475Z,25.70
2018-11-27T00:20:41.040Z,25.63
2018-11-27T00:23:10.102Z,25.10
2018-11-27T00:25:39.137Z,27.90
2018-11-27T00:28:08.125Z,24.47
2018-11-27T00:30:37.228Z,26.30
2018-11-27T00:33:06.512Z,24.60
2018-11-27T00:35:35.589Z,24.13
2018-11-27T00:38:04.606Z,24.13
2018-11-27T00:40:33.632Z,24.73
2018-11-27T00:43:02.783Z,24.90
2018-11-27T00:45:31.826Z,24.33
2018-11-27T00:48:00.846Z,24.70
2018-11-27T00:50:29.904Z,23.90
2018-11-27T00:52:58.917Z,24.77
2018-11-27T00:55:28.631Z,26.90
2018-11-27T00:57:57.667Z,25.93
2018-11-27T01:00:26.762Z,26.43
2018-11-27T01:02:55.834Z,24.40
2018-11-27T01:05:25.421Z,26.27
2018-11-27T01:07:54.502Z,25.80
2018-11-27T01:10:24.659Z,26.93
2018-11-27T01:12:53.928Z,26.20
2018-11-27T01:15:23.203Z,24.77
2018-11-27T01:17:57.671Z,25.03
2018-11-27T01:20:27.836Z,26.27
2018-11-27T01:22:56.880Z,24.40
2018-11-27T01:25:25.923Z,27.40
2018-11-27T01:27:56.255Z,25.20
2018-11-27T01:30:25.325Z,28.07
2018-11-27T01:32:55.134Z,24.10
2018-11-27T01:35:24.730Z,25.90
2018-11-27T01:37:54.780Z,26.17
2018-11-27T01:40:26.924Z,27.00
2018-11-27T01:42:57.058Z,26.53
2018-11-27T01:45:26.525Z,26.10
2018-11-27T01:47:55.536Z,27.93
2018-11-27T01:50:24.587Z,26.30
2018-11-27T01:52:53.658Z,24.70
2018-11-27T01:55:23.351Z,26.90
2018-11-27T01:57:52.394Z,25.87
2018-11-27T02:00:29.190Z,28.10
2018-11-27T02:02:59.251Z,27.10
2018-11-27T02:05:28.805Z,24.07
2018-11-27T02:07:57.907Z,24.90
2018-11-27T02:10:27.802Z,26.63
2018-11-27T02:13:01.227Z,24.80
2018-11-27T02:15:27.738Z,26.97
2018-11-27T02:17:56.999Z,24.17
2018-11-27T02:20:26.054Z,24.73
2018-11-27T02:22:55.070Z,26.60
2018-11-27T02:25:26.142Z,27.03
2018-11-27T02:27:55.274Z,27.13
2018-11-27T02:30:25.353Z,24.80
2018-11-27T02:32:55.354Z,26.23
2018-11-27T02:35:25.493Z,24.60
2018-11-27T02:37:55.812Z,24.73
2018-11-27T02:40:24.890Z,28.23
2018-11-27T02:42:53.979Z,24.27
2018-11-27T02:45:25.142Z,26.57
2018-11-27T02:47:54.858Z,25.30
2018-11-27T02:50:25.038Z,25.60
2018-11-27T02:52:54.074Z,26.93
2018-11-27T02:55:24.599Z,24.67
2018-11-27T02:57:53.683Z,25.97
2018-11-27T03:00:26.964Z,25.40
2018-11-27T03:02:56.386Z,26.50
2018-11-27T03:05:27.795Z,24.87
2018-11-27T03:07:56.813Z,25.10
2018-11-27T03:10:26.340Z,25.23
2018-11-27T03:12:55.710Z,25.23
2018-11-27T03:15:24.821Z,26.50
2018-11-27T03:17:54.175Z,26.47
2018-11-27T03:20:24.060Z,26.27
2018-11-27T03:22:53.078Z,25.87
2018-11-27T03:25:22.926Z,24.87
2018-11-27T03:27:53.617Z,27.63
2018-11-27T03:30:23.988Z,26.47
2018-11-27T03:32:53.031Z,26.20
2018-11-27T03:35:23.084Z,25.23
2018-11-27T03:37:52.275Z,27.73
2018-11-27T03:40:29.589Z,26.47
2018-11-27T03:42:58.677Z,24.40
2018-11-27T03:45:27.694Z,27.13
2018-11-27T03:47:56.710Z,26.80
2018-11-27T03:50:30.144Z,26.80
2018-11-27T03:52:59.179Z,26.40
2018-11-27T03:55:28.234Z,27.93
2018-11-27T03:57:57.254Z,26.17
2018-11-27T04:00:27.880Z,28.10
2018-11-27T04:03:13.054Z,28.60
2018-11-27T04:05:42.853Z,29.77
2018-11-27T04:08:12.000Z,27.40
2018-11-27T04:10:41.905Z,29.43
2018-11-27T04:13:10.930Z,29.50
2018-11-27T04:15:39.986Z,27.73
2018-11-27T04:18:09.014Z,27.93
2018-11-27T04:20:38.070Z,27.57
2018-11-27T04:23:07.632Z,28.63
2018-11-27T04:25:36.750Z,25.73
2018-11-27T04:28:06.957Z,28.10
2018-11-27T04:30:36.011Z,26.10
2018-11-27T04:33:05.845Z,26.77
2018-11-27T04:35:34.869Z,27.00
2018-11-27T04:38:03.863Z,29.47
2018-11-27T04:40:32.980Z,27.10
2018-11-27T04:43:02.031Z,28.13
2018-11-27T04:45:31.034Z,26.73
2018-11-27T04:48:00.084Z,27.60
2018-11-27T04:50:29.199Z,26.77
2018-11-27T04:52:58.287Z,25.23
2018-11-27T04:55:27.294Z,29.43
2018-11-27T04:57:56.329Z,29.30
2018-11-27T05:00:26.815Z,26.83
2018-11-27T05:02:55.855Z,27.43
2018-11-27T05:05:24.930Z,26.77
2018-11-27T05:07:54.075Z,26.63
2018-11-27T05:10:24.618Z,26.73
2018-11-27T05:12:53.814Z,27.00
2018-11-27T05:15:24.452Z,28.17
2018-11-27T05:17:54.882Z,27.03
2018-11-27T05:20:23.958Z,27.63
2018-11-27T05:22:53.022Z,29.50
2018-11-27T05:25:22.069Z,27.90
2018-11-27T05:27:55.169Z,29.37
2018-11-27T05:30:25.930Z,29.37
2018-11-27T05:32:54.940Z,27.97
2018-11-27T05:35:28.157Z,29.23
2018-11-27T05:37:57.577Z,28.37
2018-11-27T05:40:26.645Z,29.30
2018-11-27T05:43:02.120Z,27.30
2018-11-27T05:45:31.835Z,26.70
2018-11-27T05:48:00.903Z,27.47
2018-11-27T05:50:30.042Z,27.87
2018-11-27T05:52:59.090Z,26.97
2018-11-27T05:55:28.749Z,27.73
2018-11-27T05:57:57.971Z,29.30
2018-11-27T06:00:29.236Z,30.00
2018-11-27T06:03:00.431Z,28.30
2018-11-27T06:05:30.093Z,27.33
2018-11-27T06:07:59.114Z,26.80
2018-11-27T06:10:28.174Z,27.40
2018-11-27T06:12:57.202Z,28.30
2018-11-27T06:15:26.246Z,28.63
2018-11-27T06:17:57.891Z,30.47
2018-11-27T06:20:27.003Z,27.90
2018-11-27T06:22:56.107Z,29.70
2018-11-27T06:25:26.453Z,26.40
2018-11-27T06:28:04.110Z,28.07
2018-11-27T06:30:34.396Z,28.10
2018-11-27T06:33:03.471Z,27.87
2018-11-27T06:35:39.216Z,28.13
2018-11-27T06:38:09.495Z,28.67
2018-11-27T06:40:41.059Z,28.80
2018-11-27T06:43:11.271Z,26.07
2018-11-27T06:45:41.560Z,28.00
2018-11-27T06:48:10.720Z,28.50
2018-11-27T06:50:39.936Z,26.63
2018-11-27T06:53:09.945Z,28.47
2018-11-27T06:55:38.985Z,26.80
2018-11-27T06:58:08.486Z,25.53
2018-11-27T07:00:37.587Z,26.97
2018-11-27T07:03:11.354Z,27.00
2018-11-27T07:05:40.396Z,27.10
2018-11-27T07:08:10.292Z,26.53
2018-11-27T07:10:41.091Z,26.40
2018-11-27T07:13:14.611Z,27.40
2018-11-27T07:15:43.791Z,28.30
2018-11-27T07:18:12.861Z,27.77
2018-11-27T07:20:41.914Z,26.50
2018-11-27T07:23:10.949Z,26.03
2018-11-27T07:25:39.971Z,26.10
2018-11-27T07:28:09.035Z,28.30
2018-11-27T07:30:39.341Z,26.80
2018-11-27T07:33:08.415Z,27.30
2018-11-27T07:35:37.637Z,27.27
2018-11-27T07:38:06.973Z,28.93
2018-11-27T07:40:36.120Z,26.47
2018-11-27T07:43:09.106Z,27.20
2018-11-27T07:45:38.365Z,25.73
2018-11-27T07:48:08.482Z,25.80
2018-11-27T07:50:37.608Z,26.23
2018-11-27T07:53:07.255Z,26.73
2018-11-27T07:55:36.271Z,25.37
2018-11-27T07:58:06.584Z,28.03
2018-11-27T08:00:36.306Z,28.00
2018-11-27T08:03:06.369Z,27.63
2018-11-27T08:05:38.578Z,27.27
2018-11-27T08:08:09.296Z,27.67
2018-11-27T08:10:38.456Z,28.57
2018-11-27T08:13:08.202Z,28.17
2018-11-27T08:15:37.240Z,24.87
2018-11-27T08:18:06.292Z,25.87
2018-11-27T08:20:35.721Z,25.63
2018-11-27T08:23:09.522Z,28.40
2018-11-27T08:25:39.741Z,25.60
2018-11-27T08:28:08.844Z,25.63
2018-11-27T08:30:38.514Z,26.40
2018-11-27T08:33:07.778Z,27.40
2018-11-27T08:35:36.790Z,26.43
2018-11-27T08:38:06.315Z,28.80
2018-11-27T08:40:35.403Z,26.80
2018-11-27T08:43:04.591Z,25.70
2018-11-27T08:45:33.635Z,26.30
2018-11-27T08:48:02.830Z,24.17
2018-11-27T08:50:31.875Z,26.70
2018-11-27T08:53:03.071Z,26.70
2018-11-27T08:55:41.229Z,26.10
2018-11-27T08:58:15.570Z,25.83
2018-11-27T09:00:46.792Z,27.37
2018-11-27T09:03:16.574Z,25.20
2018-11-27T09:05:47.318Z,24.83
2018-11-27T09:08:18.052Z,25.40
2018-11-27T09:10:48.503Z,25.57
2018-11-27T09:13:17.839Z,24.93
2018-11-27T09:15:48.728Z,24.77
2018-11-27T09:18:23.706Z,24.73
2018-11-27T09:20:53.062Z,24.30
2018-11-27T09:23:22.367Z,25.27
2018-11-27T09:25:53.805Z,25.97
2018-11-27T09:28:23.084Z,24.07
2018-11-27T09:30:52.346Z,23.10
2018-11-27T09:33:23.518Z,22.80
2018-11-27T09:35:54.457Z,22.13
2018-11-27T09:38:24.367Z,23.63
2018-11-27T09:40:54.415Z,20.77
2018-11-27T09:43:25.705Z,23.50
2018-11-27T09:45:57.246Z,22.90
2018-11-27T09:48:27.749Z,22.90
2018-11-27T09:50:57.172Z,22.20
2018-11-27T09:53:27.559Z,24.37
2018-11-27T09:55:58.371Z,22.73
2018-11-27T09:58:29.220Z,22.73
2018-11-27T10:00:58.670Z,24.77
2018-11-27T10:03:28.787Z,21.67
2018-11-27T10:05:58.624Z,23.17
2018-11-27T10:08:29.763Z,23.50
2018-11-27T10:11:01.327Z,23.00
2018-11-27T10:13:31.189Z,22.73
2018-11-27T10:16:01.409Z,21.30
2018-11-27T10:18:30.645Z,23.00
2018-11-27T10:21:00.038Z,21.97
2018-11-27T10:23:31.402Z,21.63
2018-11-27T10:26:05.176Z,20.27
2018-11-27T10:28:34.897Z,22.13
2018-11-27T10:31:05.349Z,22.07
2018-11-27T10:33:35.301Z,22.53
2018-11-27T10:36:05.501Z,21.53
2018-11-27T10:38:34.618Z,20.23
2018-11-27T10:41:04.397Z,21.53
2018-11-27T10:43:33.418Z,20.70
2018-11-27T10:46:02.486Z,20.00
2018-11-27T10:48:31.535Z,22.00
2018-11-27T10:51:00.601Z,21.50
2018-11-27T10:53:29.641Z,21.77
2018-11-27T10:55:58.691Z,20.87
2018-11-27T10:58:27.769Z,20.60
2018-11-27T11:01:02.010Z,22.47
2018-11-27T11:03:37.549Z,20.80
2018-11-27T11:06:07.977Z,20.87
2018-11-27T11:08:37.790Z,20.30
2018-11-27T11:11:07.812Z,21.37
2018-11-27T11:13:36.839Z,18.70
2018-11-27T11:16:07.070Z,23.00
2018-11-27T11:18:36.138Z,21.93
2018-11-27T11:21:05.706Z,22.00
2018-11-27T11:23:34.730Z,21.87
2018-11-27T11:26:03.815Z,21.37
2018-11-27T11:28:32.941Z,21.40
2018-11-27T11:31:02.012Z,20.73
2018-11-27T11:33:32.386Z,22.20
2018-11-27T11:36:02.052Z,21.30
2018-11-27T11:38:31.051Z,22.30
2018-11-27T11:41:00.183Z,19.23
2018-11-27T11:43:29.307Z,19.80
2018-11-27T11:45:58.358Z,20.17
2018-11-27T11:48:27.365Z,21.60
2018-11-27T11:50:56.402Z,20.20
2018-11-27T11:53:25.545Z,20.60
2018-11-27T11:55:54.872Z,22.27
2018-11-27T11:58:23.916Z,21.67
2018-11-27T12:00:54.236Z,20.60
2018-11-27T12:03:23.299Z,21.97
2018-11-27T12:05:52.915Z,22.20
2018-11-27T12:08:21.987Z,19.60
2018-11-27T12:10:51.021Z,20.67
2018-11-27T12:13:20.090Z,22.00
2018-11-27T12:15:49.110Z,19.80
2018-11-27T12:18:18.122Z,18.87
2018-11-27T12:20:47.319Z,19.77
2018-11-27T12:23:16.333Z,20.13
2018-11-27T12:25:45.515Z,20.40
2018-11-27T12:28:15.205Z,21.07
2018-11-27T12:30:43.822Z,19.97
2018-11-27T12:33:13.033Z,20.67
2018-11-27T12:35:42.711Z,21.20
2018-11-27T12:38:11.793Z,19.37
2018-11-27T12:40:48.157Z,18.63
2018-11-27T12:43:17.344Z,22.47
2018-11-27T12:45:46.411Z,19.00
2018-11-27T12:48:15.498Z,19.23
2018-11-27T12:50:47.552Z,20.30
2018-11-27T12:53:17.664Z,19.23
2018-11-27T12:55:48.905Z,19.70
2018-11-27T12:58:18.009Z,19.60
2018-11-27T13:00:47.059Z,19.40
2018-11-27T13:03:16.164Z,20.30
2018-11-27T13:05:46.825Z,20.43
2018-11-27T13:08:21.339Z,19.10
2018-11-27T13:10:50.392Z,18.40
2018-11-27T13:13:19.497Z,17.73
2018-11-27T13:15:48.661Z,17.67
2018-11-27T13:18:18.532Z,18.90
2018-11-27T13:20:47.643Z,18.07
2018-11-27T13:23:16.696Z,17.53
2018-11-27T13:25:46.777Z,18.57
2018-11-27T13:28:16.629Z,18.30
2018-11-27T13:30:53.339Z,18.63
2018-11-27T13:33:26.247Z,18.30
2018-11-27T13:35:56.702Z,19.33
2018-11-27T13:38:26.345Z,18.40
2018-11-27T13:40:56.314Z,17.10
2018-11-27T13:43:27.810Z,16.13
2018-11-27T13:46:01.346Z,17.67
2018-11-27T13:48:31.323Z,18.03
2018-11-27T13:51:01.954Z,18.50
2018-11-27T13:53:31.550Z,16.40
2018-11-27T13:56:00.653Z,17.47
2018-11-27T13:58:29.987Z,15.87
2018-11-27T14:00:59.049Z,16.70
2018-11-27T14:03:29.178Z,17.10
2018-11-27T14:05:58.931Z,16.40
2018-11-27T14:08:28.616Z,18.00
2018-11-27T14:10:58.449Z,16.03
2018-11-27T14:13:27.583Z,15.43
2018-11-27T14:15:57.267Z,16.40
2018-11-27T14:18:26.302Z,17.20
2018-11-27T14:20:55.386Z,17.13
2018-11-27T14:23:24.431Z,18.57
2018-11-27T14:25:54.235Z,16.07
2018-11-27T14:28:23.359Z,16.60
2018-11-27T14:30:52.704Z,16.90
2018-11-27T14:33:21.845Z,17.60
2018-11-27T14:35:50.988Z,14.90
2018-11-27T14:38:20.490Z,15.80
2018-11-27T14:40:50.134Z,16.70
2018-11-27T14:43:19.135Z,16.03
2018-11-27T14:45:48.189Z,16.70
2018-11-27T14:48:17.251Z,17.20
2018-11-27T14:50:46.320Z,15.63
2018-11-27T14:53:15.597Z,17.43
2018-11-27T14:55:44.629Z,16.10
2018-11-27T14:58:15.153Z,15.83
2018-11-27T15:00:42.858Z,17.07
2018-11-27T15:03:12.296Z,17.53
2018-11-27T15:05:41.574Z,17.97
2018-11-27T15:08:12.226Z,19.67
2018-11-27T15:10:41.403Z,17.97
2018-11-27T15:13:12.152Z,18.07
2018-11-27T15:15:41.583Z,17.40
2018-11-27T15:18:10.650Z,16.30
2018-11-27T15:20:39.981Z,16.50
2018-11-27T15:23:09.043Z,17.67
2018-11-27T15:25:38.090Z,16.40
2018-11-27T15:28:07.349Z,16.40
2018-11-27T15:30:37.705Z,17.80
2018-11-27T15:33:07.576Z,19.43
2018-11-27T15:35:37.311Z,18.57
2018-11-27T15:38:07.197Z,16.07
2018-11-27T15:40:37.366Z,15.03
2018-11-27T15:43:06.559Z,16.33
2018-11-27T15:45:35.850Z,18.17
2018-11-27T15:48:07.220Z,19.50
2018-11-27T15:50:36.304Z,18.23
2018-11-27T15:53:05.890Z,19.47
2018-11-27T15:55:36.438Z,18.10
2018-11-27T15:58:12.951Z,18.97
2018-11-27T16:00:42.921Z,18.40
2018-11-27T16:03:13.012Z,17.83
2018-11-27T16:05:44.040Z,17.47
2018-11-27T16:08:13.713Z,18.47
2018-11-27T16:10:42.942Z,17.43
2018-11-27T16:13:12.350Z,17.23
2018-11-27T16:15:41.219Z,20.80
2018-11-27T16:18:10.287Z,18.17
2018-11-27T16:20:39.584Z,17.33
2018-11-27T16:23:08.734Z,21.40
2018-11-27T16:25:37.763Z,19.67
2018-11-27T16:28:06.889Z,18.60
2018-11-27T16:30:36.050Z,17.53
2018-11-27T16:33:05.671Z,19.13
2018-11-27T16:35:34.826Z,16.40
2018-11-27T16:38:03.937Z,15.30
2018-11-27T16:40:35.726Z,18.10
2018-11-27T16:43:05.451Z,17.07
2018-11-27T16:45:35.750Z,17.23
2018-11-27T16:48:05.395Z,16.17
2018-11-27T16:50:34.462Z,18.80
2018-11-27T16:53:04.395Z,18.13
2018-11-27T16:55:34.279Z,18.87
2018-11-27T16:58:04.004Z,19.30
2018-11-27T17:00:34.139Z,19.10
2018-11-27T17:03:05.646Z,18.70
2018-11-27T17:05:36.566Z,18.57
2018-11-27T17:08:06.277Z,30.27
2018-11-27T17:10:35.602Z,20.37
2018-11-27T17:13:06.906Z,16.80
2018-11-27T17:15:35.974Z,18.93
2018-11-27T17:18:05.139Z,18.13
2018-11-27T17:20:35.775Z,18.40
2018-11-27T17:23:07.723Z,19.20
2018-11-27T17:25:36.846Z,17.30
2018-11-27T17:28:09.217Z,18.40
2018-11-27T17:30:58.013Z,21.00
2018-11-27T17:33:34.132Z,24.67
2018-11-27T17:36:03.965Z,17.20
2018-11-27T17:38:33.039Z,17.90
2018-11-27T17:41:02.788Z,17.17
2018-11-27T17:43:31.850Z,19.10
2018-11-27T17:46:00.940Z,17.33
2018-11-27T17:48:29.994Z,14.90
2018-11-27T17:51:01.002Z,15.93
2018-11-27T17:53:30.196Z,17.83
2018-11-27T17:55:59.436Z,17.17
2018-11-27T17:58:28.501Z,17.37
2018-11-27T18:00:57.598Z,17.40
2018-11-27T18:03:27.318Z,16.10
2018-11-27T18:05:56.508Z,17.67
2018-11-27T18:08:25.521Z,22.20
2018-11-27T18:10:54.636Z,19.50
2018-11-27T18:13:23.746Z,17.67
2018-11-27T18:15:52.891Z,16.27
2018-11-27T18:18:22.626Z,16.00
2018-11-27T18:20:51.788Z,16.60
2018-11-27T18:23:21.324Z,17.17
2018-11-27T18:25:51.714Z,16.37
2018-11-27T18:28:20.905Z,17.40
2018-11-27T18:30:49.927Z,18.43
2018-11-27T18:33:19.151Z,16.13
2018-11-27T18:35:49.151Z,36.70
2018-11-27T18:38:18.549Z,24.80
2018-11-27T18:40:48.404Z,16.77
2018-11-27T18:43:17.524Z,15.60
2018-11-27T18:45:46.594Z,17.70
2018-11-27T18:48:15.670Z,18.67
2018-11-27T18:50:45.995Z,17.43
2018-11-27T18:53:15.722Z,17.77
2018-11-27T18:55:44.770Z,15.40
2018-11-27T18:58:15.345Z,18.10
2018-11-27T19:00:44.611Z,21.23
2018-11-27T19:03:13.673Z,18.37
2018-11-27T19:05:43.520Z,21.50
2018-11-27T19:08:12.623Z,18.13
2018-11-27T19:10:41.896Z,23.60
2018-11-27T19:13:11.554Z,18.50
2018-11-27T19:15:42.730Z,21.87
2018-11-27T19:18:24.052Z,21.60
2018-11-27T19:20:53.341Z,19.77
2018-11-27T19:23:23.721Z,18.03
2018-11-27T19:25:53.147Z,19.73
2018-11-27T19:28:22.989Z,19.33
2018-11-27T19:30:52.415Z,22.03
2018-11-27T19:33:21.528Z,20.50
2018-11-27T19:35:50.611Z,21.90
2018-11-27T19:38:20.607Z,36.17
2018-11-27T19:40:49.714Z,25.60
2018-11-27T19:43:19.648Z,20.40
2018-11-27T19:45:48.883Z,18.93
2018-11-27T19:48:18.574Z,20.07
2018-11-27T19:50:47.787Z,19.80
2018-11-27T19:53:18.103Z,18.93
2018-11-27T19:55:47.161Z,19.93
2018-11-27T19:58:16.942Z,17.70
2018-11-27T20:00:46.277Z,17.23
2018-11-27T20:03:15.438Z,15.77
2018-11-27T20:05:44.531Z,19.63
2018-11-27T20:08:16.146Z,19.37
2018-11-27T20:10:46.442Z,19.87
2018-11-27T20:13:15.777Z,19.20
2018-11-27T20:15:44.921Z,19.13
2018-11-27T20:18:14.160Z,19.67
2018-11-27T20:20:43.347Z,19.90
2018-11-27T20:23:13.197Z,19.87
2018-11-27T20:25:42.267Z,18.53
2018-11-27T20:28:11.563Z,17.80
2018-11-27T20:30:41.538Z,18.60
2018-11-27T20:33:10.555Z,16.57
2018-11-27T20:35:40.366Z,18.43
2018-11-27T20:38:10.810Z,18.33
2018-11-27T20:40:40.794Z,16.90
2018-11-27T20:43:09.983Z,17.00
2018-11-27T20:45:40.867Z,16.30
2018-11-27T20:48:16.478Z,17.40
2018-11-27T20:50:47.559Z,16.23
2018-11-27T20:53:17.774Z,15.73
2018-11-27T20:55:47.375Z,17.47
2018-11-27T20:58:17.158Z,15.70
2018-11-27T21:00:47.728Z,16.77
2018-11-27T21:03:16.829Z,15.37
2018-11-27T21:05:46.035Z,14.93
2018-11-27T21:08:15.397Z,16.13
2018-11-27T21:10:45.697Z,15.47
2018-11-27T21:13:14.774Z,15.73
2018-11-27T21:15:44.289Z,16.60
2018-11-27T21:18:13.562Z,17.53
2018-11-27T21:20:43.762Z,19.83
2018-11-27T21:23:12.981Z,18.20
2018-11-27T21:25:42.754Z,16.63
2018-11-27T21:28:13.384Z,17.93
2018-11-27T21:30:43.063Z,17.50
2018-11-27T21:33:12.152Z,17.60
2018-11-27T21:35:42.378Z,20.13
2018-11-27T21:38:11.542Z,18.03
2018-11-27T21:40:41.299Z,17.37
2018-11-27T21:43:11.955Z,17.00
2018-11-27T21:45:41.097Z,17.20
2018-11-27T21:48:10.757Z,15.63
2018-11-27T21:50:41.664Z,16.13
2018-11-27T21:53:11.073Z,15.20
2018-11-27T21:55:41.197Z,18.27
2018-11-27T21:58:10.378Z,17.30
2018-11-27T22:00:40.911Z,16.93
2018-11-27T22:03:11.020Z,19.27
2018-11-27T22:05:40.220Z,17.20
2018-11-27T22:08:09.538Z,20.43
2018-11-27T22:10:38.924Z,18.83
2018-11-27T22:13:11.690Z,20.57
2018-11-27T22:15:42.067Z,20.13
2018-11-27T22:18:12.088Z,19.80
2018-11-27T22:20:41.448Z,21.67
2018-11-27T22:23:10.878Z,24.13
2018-11-27T22:25:40.271Z,22.10
2018-11-27T22:28:09.711Z,23.83
2018-11-27T22:30:40.894Z,21.70
2018-11-27T22:33:10.475Z,24.87
2018-11-27T22:35:39.536Z,23.50
2018-11-27T22:38:09.609Z,23.17
2018-11-27T22:40:38.780Z,23.50
2018-11-27T22:43:08.224Z,21.63
2018-11-27T22:45:38.631Z,23.17
2018-11-27T22:48:09.337Z,21.10
2018-11-27T22:50:38.966Z,21.10
2018-11-27T22:53:09.039Z,22.80
2018-11-27T22:55:38.102Z,23.93
2018-11-27T22:58:08.099Z,24.03
2018-11-27T23:00:51.724Z,22.17
2018-11-27T23:03:20.899Z,20.83
2018-11-27T23:05:49.975Z,24.10
2018-11-27T23:08:19.106Z,23.00
2018-11-27T23:10:49.014Z,23.97
2018-11-27T23:13:18.234Z,23.67
2018-11-27T23:15:47.305Z,22.57
2018-11-27T23:18:16.394Z,22.77
2018-11-27T23:20:45.568Z,22.50
2018-11-27T23:23:14.677Z,20.73
2018-11-27T23:25:43.779Z,19.90
2018-11-27T23:28:12.793Z,19.57
2018-11-27T23:30:41.960Z,21.13
2018-11-27T23:33:11.148Z,19.30
2018-11-27T23:35:40.270Z,19.33
2018-11-27T23:38:09.338Z,20.27
2018-11-27T23:40:38.414Z,21.00
2018-11-27T23:43:07.604Z,19.83
2018-11-27T23:45:36.674Z,20.43
2018-11-27T23:48:06.317Z,22.03
2018-11-27T23:50:35.591Z,21.80
2018-11-27T23:53:04.662Z,23.77
2018-11-27T23:55:34.919Z,22.43
2018-11-27T23:58:04.018Z,22.40
